Pico Rivera, California
Current Conditions -  °F | °C
As of 11:53 PM on Monday 20 Oct 2014 (Local Time) from KFUL Reporting Station
Clear Clear  
Wind Chill: 66°   Ceiling: Unl
Heat Index: 66°   Visibility: 10mi
Dew Point: 60°   Wind: 3mph
Humidity: 81%   Direction: 80°E
Pressure: 29.9"   Gusts: NA
Location:  33.98°N, 118.08°W
Report Text: KFUL 210653Z 08003KT 10SM CLR 19/16 A2990 RMK AO2 SLP122 T01890156 $
Loading
Personal Weather Stations






























Interactive Weather Map
Tropical Storm Tracking
New forecast layout! Learn more

10-Day Weather Forecast

Advertisements
Track Severe Weather on mobile